Time;durP1;ratioP1;P1;durP2;ratioP2;P2;SDS_P1;SDS_P2;PMS_P1;PMS_P2;Temp;Humidity;BMP_temperature;BMP_pressure;BME280_temperature;BME280_humidity;BME280_pressure;Samples;Min_cycle;Max_cycle;Signal;HPM_P1;HPM_P2
2021/11/10 00:01:58;;;;;;;2.70;2.50;;;4.00;63.20;;;;;;4959031;28;20472;-60
2021/11/10 00:04:24;;;;;;;2.60;2.40;;;4.00;63.40;;;;;;4958531;28;20033;-59
2021/11/10 00:06:50;;;;;;;3.75;2.30;;;3.90;63.20;;;;;;4951135;28;20062;-59
2021/11/10 00:09:16;;;;;;;3.35;2.40;;;3.90;63.10;;;;;;4936497;29;20024;-60
2021/11/10 00:11:42;;;;;;;2.80;2.47;;;3.90;63.50;;;;;;4936383;29;20039;-60
2021/11/10 00:14:08;;;;;;;2.40;2.20;;;3.80;63.40;;;;;;4939856;28;20027;-59
2021/11/10 00:16:34;;;;;;;2.55;2.35;;;3.80;63.60;;;;;;4968937;28;20095;-60
2021/11/10 00:19:00;;;;;;;2.58;2.38;;;3.80;63.70;;;;;;4945955;28;20042;-59
2021/11/10 00:21:27;;;;;;;2.60;2.40;;;3.80;63.90;;;;;;4936201;29;20027;-59
2021/11/10 00:23:53;;;;;;;2.65;2.45;;;3.70;63.70;;;;;;4936250;29;20103;-61
2021/11/10 00:26:20;;;;;;;4.13;2.65;;;3.70;64.00;;;;;;4936492;29;20093;-59
2021/11/10 00:28:46;;;;;;;2.60;2.40;;;3.70;64.30;;;;;;4936402;28;20115;-60
2021/11/10 00:31:13;;;;;;;2.72;2.53;;;3.70;64.50;;;;;;4943339;29;20035;-59
2021/11/10 00:33:38;;;;;;;3.15;2.60;;;3.70;64.20;;;;;;4960104;28;20379;-59
2021/11/10 00:36:04;;;;;;;2.95;2.67;;;3.70;64.60;;;;;;4936017;29;20027;-59
2021/11/10 00:38:30;;;;;;;3.30;2.83;;;3.70;64.60;;;;;;4935817;29;20078;-59
2021/11/10 00:40:56;;;;;;;2.80;2.60;;;3.70;64.60;;;;;;4935975;29;20502;-60
2021/11/10 00:43:22;;;;;;;2.90;2.60;;;3.70;64.50;;;;;;4936033;29;20032;-59
2021/11/10 00:45:50;;;;;;;3.15;2.58;;;3.70;64.50;;;;;;4935893;29;20028;-59
2021/11/10 00:48:16;;;;;;;3.00;2.70;;;3.60;64.40;;;;;;4962275;28;20038;-59
2021/11/10 00:50:42;;;;;;;2.95;2.55;;;3.60;64.50;;;;;;4943185;28;20473;-60
2021/11/10 00:53:08;;;;;;;5.13;3.00;;;3.60;64.70;;;;;;4941864;28;20031;-60
2021/11/10 00:55:35;;;;;;;2.90;2.70;;;3.60;65.00;;;;;;4935983;29;20031;-59
2021/11/10 00:58:02;;;;;;;4.57;3.10;;;3.60;64.90;;;;;;4935826;29;20395;-60
2021/11/10 01:00:28;;;;;;;4.05;2.80;;;3.60;64.90;;;;;;4940954;29;20055;-60
2021/11/10 01:02:54;;;;;;;2.80;2.55;;;3.50;65.10;;;;;;4947816;28;20039;-60
2021/11/10 01:05:20;;;;;;;3.55;2.70;;;3.50;65.00;;;;;;4946401;28;20103;-60
2021/11/10 01:07:46;;;;;;;2.72;2.47;;;3.50;65.00;;;;;;4947545;28;20395;-59
2021/11/10 01:10:13;;;;;;;3.08;2.80;;;3.50;65.10;;;;;;4939698;29;20031;-59
2021/11/10 01:12:40;;;;;;;2.97;2.72;;;3.50;65.20;;;;;;4939561;29;20063;-59
2021/11/10 01:15:08;;;;;;;2.97;2.67;;;3.50;65.20;;;;;;4939894;29;20024;-59
2021/11/10 01:17:35;;;;;;;3.30;3.00;;;3.50;65.50;;;;;;4939778;29;20387;-59
2021/11/10 01:20:01;;;;;;;2.97;2.67;;;3.40;65.40;;;;;;4965786;28;20440;-59
2021/11/10 01:22:27;;;;;;;4.00;3.10;;;3.40;65.60;;;;;;4939450;29;20108;-59
2021/11/10 01:24:52;;;;;;;3.50;2.65;;;3.40;65.50;;;;;;4950290;28;20154;-59
2021/11/10 01:27:18;;;;;;;3.33;2.70;;;3.40;65.70;;;;;;4939449;29;20034;-59
2021/11/10 01:29:44;;;;;;;3.88;3.00;;;3.40;65.50;;;;;;4941144;29;20039;-60
2021/11/10 01:32:10;;;;;;;3.30;3.00;;;3.40;65.70;;;;;;4958562;28;20035;-59
2021/11/10 01:34:36;;;;;;;2.95;2.65;;;3.40;65.90;;;;;;4965046;28;20418;-60
2021/11/10 01:37:03;;;;;;;2.92;2.72;;;3.40;65.90;;;;;;4949454;28;20062;-60
2021/11/10 01:39:29;;;;;;;4.45;3.10;;;3.40;65.90;;;;;;4938945;29;20055;-59
2021/11/10 01:42:02;;;;;;;3.40;3.10;;;3.40;66.00;;;;;;4954763;28;20066;-60
2021/11/10 01:44:28;;;;;;;4.13;3.10;;;3.40;66.60;;;;;;4939373;29;20036;-59
2021/11/10 01:46:57;;;;;;;3.95;3.38;;;3.30;66.20;;;;;;4938946;29;20043;-58
2021/11/10 01:49:23;;;;;;;4.07;3.30;;;3.30;66.50;;;;;;4939047;29;20176;-60
2021/11/10 01:51:52;;;;;;;4.18;3.78;;;3.30;66.40;;;;;;4960809;28;20181;-59
2021/11/10 01:54:19;;;;;;;4.05;3.13;;;3.30;66.50;;;;;;4938828;29;20023;-59
2021/11/10 01:56:45;;;;;;;3.25;2.95;;;3.30;66.70;;;;;;4937635;29;20122;-60
2021/11/10 01:59:31;;;;;;;3.95;3.47;;;3.30;66.60;;;;;;4950309;28;20461;-59
2021/11/10 02:01:58;;;;;;;4.07;3.25;;;3.20;66.70;;;;;;4958210;28;20031;-59
2021/11/10 02:04:27;;;;;;;3.45;3.05;;;3.20;67.10;;;;;;4947889;28;20050;-60
2021/11/10 02:06:53;;;;;;;3.47;3.17;;;3.20;67.10;;;;;;4951002;29;20034;-59
2021/11/10 02:09:22;;;;;;;4.30;3.60;;;3.20;67.20;;;;;;4941766;28;20024;-59
2021/11/10 02:11:48;;;;;;;4.65;3.47;;;3.30;67.30;;;;;;4938754;29;20486;-59
2021/11/10 02:14:15;;;;;;;4.90;3.45;;;3.20;67.20;;;;;;4938044;29;20099;-60
2021/11/10 02:16:41;;;;;;;3.53;3.10;;;3.20;67.10;;;;;;4953836;28;20082;-59
2021/11/10 02:19:06;;;;;;;4.35;3.67;;;3.20;67.20;;;;;;4939835;28;20480;-59
2021/11/10 02:21:35;;;;;;;3.88;3.15;;;3.20;67.20;;;;;;4952926;28;20111;-59
2021/11/10 02:24:00;;;;;;;4.38;3.38;;;3.10;67.30;;;;;;4938257;28;20044;-59
2021/11/10 02:26:26;;;;;;;4.20;3.10;;;3.20;67.30;;;;;;4939496;29;20030;-60
2021/11/10 02:28:52;;;;;;;4.22;3.03;;;3.10;67.60;;;;;;4942002;29;20035;-60
2021/11/10 02:31:18;;;;;;;3.67;3.33;;;3.10;67.80;;;;;;4957337;28;20032;-60
2021/11/10 02:33:44;;;;;;;5.20;3.60;;;3.10;67.70;;;;;;4957674;28;20062;-60
2021/11/10 02:36:10;;;;;;;4.47;3.58;;;3.10;67.80;;;;;;4957577;28;20023;-60
2021/11/10 02:38:37;;;;;;;3.75;3.40;;;3.10;67.70;;;;;;4941244;28;20051;-60
2021/11/10 02:41:03;;;;;;;3.40;3.10;;;3.10;67.60;;;;;;4938151;29;20123;-59
2021/11/10 02:43:29;;;;;;;5.80;3.33;;;3.10;67.90;;;;;;4941890;29;20559;-60
2021/11/10 02:45:55;;;;;;;3.95;3.47;;;3.10;67.80;;;;;;4937979;29;20028;-59
2021/11/10 02:48:22;;;;;;;5.28;3.45;;;3.10;67.80;;;;;;4937867;29;20106;-59
2021/11/10 02:50:48;;;;;;;3.50;3.20;;;3.10;67.70;;;;;;4945874;28;20601;-59
2021/11/10 02:53:14;;;;;;;3.53;3.15;;;3.10;67.70;;;;;;4937717;29;20034;-60
2021/11/10 02:55:41;;;;;;;4.68;3.80;;;3.10;67.80;;;;;;4945787;28;20031;-60
2021/11/10 02:58:06;;;;;;;4.00;3.47;;;3.10;67.80;;;;;;4954245;28;20059;-59
2021/11/10 03:00:33;;;;;;;3.60;3.30;;;3.10;67.90;;;;;;4957164;28;20102;-60
2021/11/10 03:03:02;;;;;;;4.22;3.33;;;3.10;67.90;;;;;;4956554;28;20383;-60
2021/11/10 03:05:29;;;;;;;3.65;3.20;;;3.10;67.90;;;;;;4938054;29;20030;-59
2021/11/10 03:07:55;;;;;;;4.30;3.83;;;3.10;67.90;;;;;;4941736;28;20476;-60
2021/11/10 03:10:21;;;;;;;3.58;3.25;;;3.10;68.00;;;;;;4937502;29;20020;-60
2021/11/10 03:12:47;;;;;;;3.85;3.03;;;3.10;67.90;;;;;;4953066;29;20024;-60
2021/11/10 03:15:13;;;;;;;4.38;3.47;;;3.10;67.90;;;;;;4957553;28;20038;-59
2021/11/10 03:17:39;;;;;;;4.00;3.35;;;3.10;68.00;;;;;;4944821;28;20527;-59
2021/11/10 03:20:07;;;;;;;3.78;3.42;;;3.10;67.90;;;;;;4937375;29;20031;-60
2021/11/10 03:22:32;;;;;;;4.18;3.40;;;3.10;67.80;;;;;;4937204;29;20070;-60
2021/11/10 03:24:58;;;;;;;5.03;3.60;;;3.00;67.70;;;;;;4946088;28;20067;-59
2021/11/10 03:27:24;;;;;;;4.97;3.70;;;3.00;67.80;;;;;;4937465;29;20083;-59
2021/11/10 03:29:50;;;;;;;3.50;3.20;;;3.00;67.90;;;;;;4941264;29;20472;-59
2021/11/10 03:32:17;;;;;;;3.80;3.30;;;3.00;67.90;;;;;;4936728;29;20042;-59
2021/11/10 03:34:43;;;;;;;3.67;3.35;;;3.00;68.00;;;;;;4937065;29;20020;-60
2021/11/10 03:37:09;;;;;;;3.67;3.05;;;3.10;68.00;;;;;;4937321;29;20153;-59
2021/11/10 03:39:35;;;;;;;4.32;3.40;;;3.10;68.00;;;;;;4936763;29;20044;-60
2021/11/10 03:42:02;;;;;;;4.32;3.38;;;3.00;68.00;;;;;;4941941;28;20102;-60
2021/11/10 03:44:28;;;;;;;3.92;3.17;;;3.00;68.00;;;;;;4934963;29;20420;-60
2021/11/10 03:46:53;;;;;;;4.28;3.75;;;3.00;68.00;;;;;;4945201;28;20035;-58
2021/11/10 03:49:20;;;;;;;4.25;3.78;;;3.00;68.00;;;;;;4938566;29;20040;-59
2021/11/10 03:51:46;;;;;;;4.03;3.30;;;3.00;67.90;;;;;;4936743;29;20115;-60
2021/11/10 03:54:12;;;;;;;4.10;3.70;;;3.00;67.80;;;;;;4936541;29;20030;-60
2021/11/10 03:56:38;;;;;;;4.22;3.45;;;3.00;67.80;;;;;;4936707;29;20028;-60
2021/11/10 03:59:05;;;;;;;4.25;3.15;;;3.00;68.00;;;;;;4941727;28;20036;-60
2021/11/10 04:01:31;;;;;;;3.95;3.28;;;2.90;68.10;;;;;;4937336;29;20091;-60
2021/11/10 04:03:57;;;;;;;4.45;3.80;;;2.90;68.20;;;;;;4948594;28;20036;-59
2021/11/10 04:06:23;;;;;;;4.68;3.88;;;3.00;68.30;;;;;;4949155;28;20031;-59
2021/11/10 04:08:49;;;;;;;3.70;3.40;;;2.90;68.30;;;;;;4935739;29;20365;-58
2021/11/10 04:11:15;;;;;;;4.47;3.50;;;2.90;68.40;;;;;;4935877;29;20491;-59
2021/11/10 04:13:41;;;;;;;4.00;3.38;;;2.90;68.20;;;;;;4935560;29;20023;-59
2021/11/10 04:16:06;;;;;;;4.57;3.70;;;2.90;68.10;;;;;;4955703;28;20034;-59
2021/11/10 04:18:33;;;;;;;5.50;3.33;;;2.90;68.20;;;;;;4954101;29;20483;-60
2021/11/10 04:21:03;;;;;;;5.43;3.55;;;2.90;68.10;;;;;;4937448;28;20119;-58
2021/11/10 04:23:31;;;;;;;3.97;3.38;;;2.90;68.20;;;;;;4935909;29;20031;-59
2021/11/10 04:25:59;;;;;;;4.72;3.47;;;2.90;68.30;;;;;;4936459;29;20077;-60
2021/11/10 04:28:25;;;;;;;5.78;4.20;;;2.90;68.40;;;;;;4941526;29;20468;-59
2021/11/10 04:30:53;;;;;;;4.85;3.80;;;2.90;68.50;;;;;;4955361;28;20463;-59
2021/11/10 04:33:20;;;;;;;5.70;3.55;;;2.90;68.40;;;;;;4943068;28;20019;-60
2021/11/10 04:35:46;;;;;;;4.57;3.92;;;2.90;68.60;;;;;;4936018;29;20024;-60
2021/11/10 04:38:13;;;;;;;4.65;3.97;;;2.90;68.60;;;;;;4948614;28;20031;-60
2021/11/10 04:40:39;;;;;;;4.35;3.78;;;2.90;68.50;;;;;;4935825;29;20135;-60
2021/11/10 04:43:05;;;;;;;4.10;3.67;;;2.90;68.50;;;;;;4935957;29;20079;-59
2021/11/10 04:45:33;;;;;;;5.78;4.30;;;2.90;68.40;;;;;;4942043;28;20424;-60
2021/11/10 04:47:59;;;;;;;5.00;3.90;;;2.90;68.50;;;;;;4947060;28;20419;-59
2021/11/10 04:50:25;;;;;;;4.32;3.63;;;2.90;68.60;;;;;;4938923;28;20024;-60
2021/11/10 04:52:51;;;;;;;6.20;3.88;;;2.90;68.80;;;;;;4935781;29;20024;-58
2021/11/10 04:55:17;;;;;;;4.50;3.55;;;2.90;68.70;;;;;;4935747;29;20102;-59
2021/11/10 04:57:42;;;;;;;5.75;3.95;;;2.90;68.60;;;;;;4935844;29;20024;-59
2021/11/10 05:00:10;;;;;;;4.00;3.47;;;2.90;68.70;;;;;;4935725;29;20107;-60
2021/11/10 05:02:39;;;;;;;4.20;3.67;;;2.90;68.70;;;;;;4950602;29;20034;-60
2021/11/10 05:05:06;;;;;;;5.63;4.00;;;2.90;68.70;;;;;;4956285;28;20454;-60
2021/11/10 05:07:32;;;;;;;4.25;3.67;;;2.80;68.70;;;;;;4943610;28;20132;-60
2021/11/10 05:09:58;;;;;;;4.70;3.67;;;2.90;68.70;;;;;;4935737;29;20468;-60
2021/11/10 05:12:24;;;;;;;4.63;3.90;;;2.90;68.70;;;;;;4935484;29;20039;-60
2021/11/10 05:14:52;;;;;;;4.25;3.70;;;2.90;68.80;;;;;;4936793;28;20078;-60
2021/11/10 05:17:20;;;;;;;4.60;3.55;;;2.90;68.80;;;;;;4959950;28;20028;-60
2021/11/10 05:19:46;;;;;;;4.82;3.50;;;2.90;68.90;;;;;;4935809;29;20486;-60
2021/11/10 05:22:12;;;;;;;4.68;3.28;;;3.00;68.90;;;;;;4940228;28;20029;-60
2021/11/10 05:24:38;;;;;;;3.50;3.20;;;3.00;68.90;;;;;;4953370;28;20023;-60
2021/11/10 05:27:04;;;;;;;5.57;3.28;;;3.10;68.80;;;;;;4950764;28;20047;-60
2021/11/10 05:29:30;;;;;;;3.85;3.08;;;3.10;68.80;;;;;;4945919;28;20031;-59
2021/11/10 05:31:56;;;;;;;3.90;3.50;;;3.20;68.60;;;;;;4935524;29;20504;-58
2021/11/10 05:34:21;;;;;;;4.30;3.33;;;3.20;68.30;;;;;;4935541;29;20028;-62
2021/11/10 05:36:47;;;;;;;4.07;3.25;;;3.30;68.20;;;;;;4935585;29;20121;-59
2021/11/10 05:39:14;;;;;;;3.95;3.40;;;3.30;68.20;;;;;;4938983;28;20046;-60
2021/11/10 05:41:39;;;;;;;5.07;3.47;;;3.40;68.20;;;;;;4937648;28;20035;-60
2021/11/10 05:44:05;;;;;;;4.30;3.53;;;3.50;68.00;;;;;;4947427;28;20388;-60
2021/11/10 05:46:31;;;;;;;5.40;3.53;;;3.50;67.80;;;;;;4961835;28;20070;-60
2021/11/10 05:48:57;;;;;;;5.28;3.47;;;3.60;67.60;;;;;;4937677;29;20078;-60
2021/11/10 05:51:22;;;;;;;3.58;3.15;;;3.70;67.50;;;;;;4939122;29;20032;-60
2021/11/10 05:53:50;;;;;;;4.65;3.30;;;3.70;67.30;;;;;;4939152;29;20052;-62
2021/11/10 05:56:21;;;;;;;3.72;3.30;;;3.70;67.20;;;;;;4945676;28;20474;-60
2021/11/10 05:58:47;;;;;;;3.92;3.20;;;3.80;67.10;;;;;;4939242;28;20539;-60
2021/11/10 06:01:12;;;;;;;4.03;3.20;;;3.80;66.90;;;;;;4959776;28;20035;-59
2021/11/10 06:03:38;;;;;;;3.72;3.35;;;3.90;66.80;;;;;;4949692;28;20028;-60
2021/11/10 06:06:04;;;;;;;4.07;2.95;;;3.90;66.70;;;;;;4949463;29;20051;-59
2021/11/10 06:08:30;;;;;;;3.40;3.10;;;4.00;66.70;;;;;;4947318;29;20468;-62
2021/11/10 06:10:56;;;;;;;3.50;3.20;;;4.10;66.50;;;;;;4955553;28;20039;-60
2021/11/10 06:13:22;;;;;;;3.90;3.30;;;4.20;66.40;;;;;;4956980;28;20033;-60
2021/11/10 06:15:47;;;;;;;3.08;2.78;;;4.20;66.20;;;;;;4957357;28;20094;-60
2021/11/10 06:18:13;;;;;;;3.30;3.00;;;4.30;66.10;;;;;;4953194;28;20040;-60
2021/11/10 06:20:39;;;;;;;4.35;3.28;;;4.30;65.90;;;;;;4961691;28;20107;-60
2021/11/10 06:23:05;;;;;;;3.80;3.28;;;4.30;66.00;;;;;;4950969;28;20123;-59
2021/11/10 06:25:32;;;;;;;3.22;2.92;;;4.30;65.60;;;;;;4950262;28;20371;-60
2021/11/10 06:27:58;;;;;;;4.78;3.00;;;4.40;65.60;;;;;;4953710;29;20031;-60
2021/11/10 06:30:24;;;;;;;4.95;3.63;;;4.40;65.80;;;;;;4955135;28;20040;-62
2021/11/10 06:32:50;;;;;;;4.22;3.25;;;4.40;65.50;;;;;;4956721;28;20068;-60
2021/11/10 06:35:17;;;;;;;3.63;3.08;;;4.40;65.30;;;;;;4950944;28;20031;-60
2021/11/10 06:37:42;;;;;;;4.20;3.45;;;4.40;65.30;;;;;;4953407;28;20012;-60
2021/11/10 06:40:10;;;;;;;4.75;3.08;;;4.40;65.10;;;;;;4958707;28;20043;-60
2021/11/10 06:42:36;;;;;;;4.38;3.20;;;4.40;65.60;;;;;;4951769;28;20125;-60
2021/11/10 06:45:03;;;;;;;4.00;3.53;;;4.40;65.00;;;;;;4948341;29;20480;-60
2021/11/10 06:47:29;;;;;;;3.33;3.03;;;4.40;64.90;;;;;;4948501;28;20480;-60
2021/11/10 06:49:56;;;;;;;3.67;2.97;;;4.40;65.00;;;;;;4948204;28;20483;-60
2021/11/10 06:52:22;;;;;;;3.58;3.25;;;4.40;65.00;;;;;;4947037;29;20031;-60
2021/11/10 06:54:50;;;;;;;3.50;3.17;;;4.40;65.10;;;;;;4945377;29;20504;-60
2021/11/10 06:57:17;;;;;;;3.40;3.10;;;4.40;65.30;;;;;;4949549;28;20071;-59
2021/11/10 06:59:42;;;;;;;4.75;3.30;;;4.40;65.40;;;;;;4954371;28;20031;-61
2021/11/10 07:02:08;;;;;;;4.68;3.40;;;4.40;65.20;;;;;;4946080;28;20063;-61
2021/11/10 07:04:34;;;;;;;5.00;3.60;;;4.40;65.30;;;;;;4943298;28;20086;-61
2021/11/10 07:07:00;;;;;;;3.90;3.30;;;4.40;65.40;;;;;;4946972;29;20122;-61
2021/11/10 07:09:25;;;;;;;3.53;3.05;;;4.40;65.50;;;;;;4950904;28;20042;-61
2021/11/10 07:11:51;;;;;;;3.97;3.40;;;4.40;65.40;;;;;;4949665;28;20027;-61
2021/11/10 07:14:17;;;;;;;3.42;3.10;;;4.40;65.70;;;;;;4941221;28;20028;-61
2021/11/10 07:16:43;;;;;;;3.95;3.40;;;4.40;65.50;;;;;;4947060;29;20027;-61
2021/11/10 07:19:08;;;;;;;4.30;3.50;;;4.30;65.40;;;;;;4952586;28;20035;-60
2021/11/10 07:21:34;;;;;;;4.70;3.28;;;4.30;65.40;;;;;;4948254;28;20050;-61
2021/11/10 07:24:00;;;;;;;4.50;3.33;;;4.30;65.40;;;;;;4951316;28;20038;-61
2021/11/10 07:26:25;;;;;;;3.28;2.97;;;4.30;65.40;;;;;;4946689;28;20446;-61
2021/11/10 07:28:52;;;;;;;5.68;3.47;;;4.30;65.50;;;;;;4942305;29;20039;-61
2021/11/10 07:31:18;;;;;;;3.97;3.25;;;4.30;65.70;;;;;;4948121;28;20468;-61
2021/11/10 07:33:44;;;;;;;5.65;3.80;;;4.30;65.70;;;;;;4951597;28;20102;-60
2021/11/10 07:36:09;;;;;;;5.22;3.67;;;4.40;65.60;;;;;;4951579;28;20035;-60
2021/11/10 07:38:41;;;;;;;3.83;3.42;;;4.30;65.50;;;;;;4945300;28;20031;-61
2021/11/10 07:41:08;;;;;;;;;;;4.30;65.60;;;;;;4945960;29;20043;-61
2021/11/10 07:43:34;;;;;;;5.38;3.50;;;4.30;65.50;;;;;;4949704;29;20314;-61
2021/11/10 07:46:20;;;;;;;4.35;3.25;;;4.30;65.50;;;;;;4946590;29;20118;-61
2021/11/10 07:48:47;;;;;;;5.20;3.95;;;4.30;65.50;;;;;;4942326;28;20023;-61
2021/11/10 07:51:14;;;;;;;4.10;3.60;;;4.30;65.60;;;;;;4940169;29;20063;-61
2021/11/10 07:53:40;;;;;;;5.90;4.10;;;4.40;65.80;;;;;;4947101;28;20038;-61
2021/11/10 07:56:06;;;;;;;4.47;3.80;;;4.40;65.80;;;;;;4942796;28;20059;-61
2021/11/10 07:58:33;;;;;;;4.65;3.08;;;4.40;65.70;;;;;;4947903;28;20440;-60
2021/11/10 08:00:58;;;;;;;3.78;3.13;;;4.50;65.50;;;;;;4950157;28;20035;-61
2021/11/10 08:03:24;;;;;;;3.72;3.33;;;4.50;65.50;;;;;;4947963;28;20035;-60
2021/11/10 08:05:50;;;;;;;4.18;3.03;;;4.50;65.50;;;;;;4943770;28;20459;-61
2021/11/10 08:08:16;;;;;;;3.30;3.00;;;4.50;65.30;;;;;;4950049;29;20035;-61
2021/11/10 08:10:43;;;;;;;3.72;3.15;;;4.50;65.10;;;;;;4942291;28;20036;-61
2021/11/10 08:13:09;;;;;;;3.80;3.40;;;4.50;64.90;;;;;;4950169;28;20031;-60
2021/11/10 08:15:36;;;;;;;4.85;3.30;;;4.50;64.90;;;;;;4952496;28;20035;-61
2021/11/10 08:18:03;;;;;;;4.05;3.30;;;4.50;65.00;;;;;;4950777;28;20106;-60
2021/11/10 08:20:28;;;;;;;3.97;3.20;;;4.60;65.20;;;;;;4947863;28;20038;-63
2021/11/10 08:22:54;;;;;;;4.13;3.30;;;4.60;65.30;;;;;;4950549;28;20035;-60
2021/11/10 08:25:20;;;;;;;5.43;3.45;;;4.60;65.80;;;;;;4946440;28;20023;-61
2021/11/10 08:27:46;;;;;;;2.90;2.70;;;4.60;64.90;;;;;;4945196;29;20444;-61
2021/11/10 08:30:17;;;;;;;3.00;2.80;;;4.70;64.90;;;;;;4946998;28;20031;-61
2021/11/10 08:32:45;;;;;;;3.85;3.00;;;4.70;64.70;;;;;;4950023;28;20032;-61
2021/11/10 08:35:11;;;;;;;4.78;3.10;;;4.70;64.60;;;;;;4946480;29;20019;-61
2021/11/10 08:37:38;;;;;;;3.20;2.83;;;4.70;64.30;;;;;;4942041;28;20048;-62
2021/11/10 08:40:06;;;;;;;3.45;2.90;;;4.70;64.30;;;;;;4941244;28;20134;-61
2021/11/10 08:42:33;;;;;;;3.70;2.70;;;4.80;64.20;;;;;;4945344;29;20031;-62
2021/11/10 08:45:02;;;;;;;3.13;2.83;;;4.80;64.00;;;;;;4936315;28;20043;-62
2021/11/10 08:47:28;;;;;;;3.40;2.67;;;4.80;64.10;;;;;;4950659;28;20074;-62
2021/11/10 08:49:54;;;;;;;3.63;2.97;;;4.80;63.90;;;;;;4939862;28;20107;-62
2021/11/10 08:52:20;;;;;;;2.75;2.53;;;4.80;64.40;;;;;;4940970;28;20106;-62
2021/11/10 08:54:46;;;;;;;3.25;2.78;;;4.90;63.80;;;;;;4944073;28;20038;-62
2021/11/10 08:57:12;;;;;;;2.65;2.42;;;4.90;63.60;;;;;;4943185;28;20040;-62
2021/11/10 08:59:38;;;;;;;4.53;2.80;;;4.90;63.50;;;;;;4939670;28;20356;-62
2021/11/10 09:02:04;;;;;;;3.20;2.90;;;4.90;63.50;;;;;;4939272;29;20505;-62
2021/11/10 09:04:30;;;;;;;3.45;2.60;;;4.90;63.30;;;;;;4940062;28;20031;-62
2021/11/10 09:06:56;;;;;;;3.15;2.42;;;4.90;63.10;;;;;;4943255;28;20057;-62
2021/11/10 09:09:22;;;;;;;3.47;2.90;;;4.90;63.00;;;;;;4946695;29;20035;-62
2021/11/10 09:11:49;;;;;;;2.95;2.65;;;4.90;63.00;;;;;;4941143;28;20479;-63
2021/11/10 09:14:16;;;;;;;3.08;2.78;;;5.00;62.90;;;;;;4945667;28;20041;-62
2021/11/10 09:16:42;;;;;;;3.42;2.70;;;5.00;62.80;;;;;;4950507;29;20039;-62
2021/11/10 09:19:09;;;;;;;3.70;2.78;;;5.00;62.70;;;;;;4945223;28;20035;-62
2021/11/10 09:21:36;;;;;;;3.65;3.28;;;5.00;62.60;;;;;;4941073;28;20032;-62
2021/11/10 09:24:01;;;;;;;2.83;2.55;;;5.00;62.70;;;;;;4949391;28;20479;-62
2021/11/10 09:26:27;;;;;;;4.28;3.10;;;5.00;62.80;;;;;;4943173;28;20045;-62
2021/11/10 09:28:54;;;;;;;3.75;3.20;;;5.00;62.70;;;;;;4939824;29;20114;-62
2021/11/10 09:31:22;;;;;;;4.22;3.53;;;5.00;62.60;;;;;;4939799;29;20047;-62
2021/11/10 09:33:48;;;;;;;3.22;2.92;;;5.10;62.50;;;;;;4943693;29;21080;-62
2021/11/10 09:36:14;;;;;;;4.10;3.40;;;5.10;62.40;;;;;;4941145;28;20416;-62
2021/11/10 09:38:40;;;;;;;5.60;3.10;;;5.10;62.40;;;;;;4944605;28;20079;-61
2021/11/10 09:41:08;;;;;;;3.40;2.92;;;5.10;62.10;;;;;;4950624;28;20043;-62
2021/11/10 09:43:37;;;;;;;3.08;2.78;;;5.10;62.10;;;;;;4945865;29;20470;-62
2021/11/10 09:46:03;;;;;;;4.53;2.85;;;5.10;61.80;;;;;;4949084;28;20075;-62
2021/11/10 09:48:30;;;;;;;3.33;2.97;;;5.10;61.70;;;;;;4940723;28;20035;-62
2021/11/10 09:50:56;;;;;;;3.13;2.83;;;5.20;61.60;;;;;;4941468;29;20069;-62
2021/11/10 09:53:23;;;;;;;3.28;2.97;;;5.20;61.50;;;;;;4939037;28;20114;-62
2021/11/10 09:55:49;;;;;;;4.28;3.47;;;5.20;61.60;;;;;;4948859;28;20170;-62
2021/11/10 09:58:15;;;;;;;3.53;2.95;;;5.30;61.40;;;;;;4945543;29;20102;-62
2021/11/10 10:00:45;;;;;;;3.92;2.90;;;5.30;61.20;;;;;;4944367;29;20032;-62
2021/11/10 10:03:11;;;;;;;3.05;2.45;;;5.30;61.10;;;;;;4944094;29;20114;-62
2021/11/10 10:05:38;;;;;;;3.97;3.00;;;5.30;61.00;;;;;;4947653;28;20379;-62
2021/11/10 10:08:05;;;;;;;3.20;2.40;;;5.40;60.80;;;;;;4947555;28;20047;-62
2021/11/10 10:10:32;;;;;;;3.00;2.70;;;5.50;61.30;;;;;;4947766;28;20452;-62
2021/11/10 10:13:00;;;;;;;2.90;2.60;;;5.50;60.50;;;;;;4952174;28;20504;-62
2021/11/10 10:15:27;;;;;;;3.58;2.72;;;5.60;60.40;;;;;;4945267;29;21621;-62
2021/11/10 10:17:59;;;;;;;2.85;2.60;;;5.60;60.90;;;;;;4945570;28;20031;-62
2021/11/10 10:20:33;;;;;;;3.13;2.83;;;5.60;60.00;;;;;;4945909;28;20028;-62
2021/11/10 10:23:09;;;;;;;3.10;2.80;;;5.70;59.80;;;;;;4941382;28;20031;-62
2021/11/10 10:25:57;;;;;;;2.88;2.60;;;5.70;59.40;;;;;;4947121;29;20113;-62
2021/11/10 10:28:28;;;;;;;2.85;2.50;;;5.70;58.90;;;;;;4950686;28;20039;-62
2021/11/10 10:31:07;;;;;;;2.70;2.50;;;5.80;58.80;;;;;;4950599;29;20062;-62
2021/11/10 10:33:36;;;;;;;3.33;2.92;;;5.70;58.50;;;;;;4948716;28;20043;-62
2021/11/10 10:36:09;;;;;;;2.35;2.15;;;5.80;58.60;;;;;;4945524;29;20149;-62
2021/11/10 10:38:47;;;;;;;3.33;2.65;;;5.90;59.20;;;;;;4940706;28;20059;-62
2021/11/10 10:41:16;;;;;;;3.17;2.80;;;5.90;58.30;;;;;;4944663;29;20032;-62
2021/11/10 10:43:47;;;;;;;3.88;2.67;;;5.90;58.20;;;;;;4945545;28;20070;-62
2021/11/10 10:46:14;;;;;;;2.60;2.40;;;5.90;58.20;;;;;;4944001;28;20032;-62
2021/11/10 10:48:40;;;;;;;3.58;2.55;;;6.00;58.20;;;;;;4937228;29;20486;-62
2021/11/10 10:51:10;;;;;;;3.35;2.67;;;6.00;57.90;;;;;;4946205;29;20071;-62
2021/11/10 10:53:39;;;;;;;3.58;2.50;;;6.00;57.70;;;;;;4940980;28;20034;-61
2021/11/10 10:56:14;;;;;;;4.30;2.28;;;6.10;57.50;;;;;;4939949;28;20492;-62
2021/11/10 10:58:40;;;;;;;3.05;2.75;;;6.10;57.40;;;;;;4948985;29;20034;-62
2021/11/10 11:01:20;;;;;;;2.60;2.40;;;6.20;57.30;;;;;;4946225;28;20036;-62
2021/11/10 11:03:51;;;;;;;2.53;2.33;;;6.20;56.80;;;;;;4944804;28;20732;-62
2021/11/10 11:06:45;;;;;;;2.75;2.50;;;6.20;56.80;;;;;;4936005;29;20087;-62
2021/11/10 11:09:19;;;;;;;2.60;2.40;;;6.20;56.60;;;;;;4941427;29;20042;-61
2021/11/10 11:12:01;;;;;;;3.00;2.70;;;6.20;56.40;;;;;;4945219;28;20157;-62
2021/11/10 11:14:38;;;;;;;3.22;2.72;;;6.30;56.30;;;;;;4943592;29;20035;-61
2021/11/10 11:17:26;;;;;;;3.13;2.42;;;6.30;56.20;;;;;;4951907;28;20031;-61
2021/11/10 11:19:52;;;;;;;2.63;2.35;;;6.30;56.00;;;;;;4957854;28;20119;-62
2021/11/10 11:22:18;;;;;;;3.47;2.20;;;6.20;56.00;;;;;;4939354;29;20114;-62
2021/11/10 11:24:45;;;;;;;2.75;2.50;;;6.30;55.60;;;;;;4953523;28;20479;-62
2021/11/10 11:27:17;;;;;;;3.80;2.53;;;6.30;55.40;;;;;;4947519;28;20143;-62
2021/11/10 11:29:45;;;;;;;2.58;2.38;;;6.30;55.10;;;;;;4942438;28;20114;-61
2021/11/10 11:32:21;;;;;;;2.88;2.65;;;6.30;55.10;;;;;;4946697;28;20028;-62
2021/11/10 11:34:56;;;;;;;3.10;2.72;;;6.40;55.00;;;;;;4948990;28;20078;-61
2021/11/10 11:37:24;;;;;;;2.50;2.33;;;6.40;54.80;;;;;;4953862;28;20490;-62
2021/11/10 11:39:51;;;;;;;2.60;2.20;;;6.40;54.30;;;;;;4949288;29;20047;-62
2021/11/10 11:42:18;;;;;;;2.15;1.98;;;6.40;54.00;;;;;;4943803;28;20090;-62
2021/11/10 11:44:45;;;;;;;2.30;2.10;;;6.40;53.80;;;;;;4945538;29;20031;-62
2021/11/10 11:47:11;;;;;;;2.47;2.28;;;6.40;53.50;;;;;;4935022;28;20446;-62
2021/11/10 11:49:41;;;;;;;2.25;2.13;;;6.40;53.30;;;;;;4948041;28;20058;-60
2021/11/10 11:52:14;;;;;;;3.38;2.60;;;6.50;53.50;;;;;;4942199;29;20067;-61
2021/11/10 11:54:43;;;;;;;2.08;1.98;;;6.50;53.70;;;;;;4938774;28;20053;-62
2021/11/10 11:57:12;;;;;;;2.30;2.10;;;6.50;53.50;;;;;;4948569;28;20109;-61
2021/11/10 11:59:40;;;;;;;2.90;2.10;;;6.50;53.60;;;;;;4950125;28;20058;-62
2021/11/10 12:02:21;;;;;;;2.22;2.08;;;6.50;53.40;;;;;;4944537;29;20333;-62
2021/11/10 12:04:46;;;;;;;1.92;1.83;;;6.50;53.40;;;;;;4942933;29;20460;-61
2021/11/10 12:07:12;;;;;;;2.50;2.30;;;6.60;53.40;;;;;;4950890;28;20129;-63
2021/11/10 12:09:38;;;;;;;2.00;1.90;;;6.60;53.20;;;;;;4946122;28;20123;-62
2021/11/10 12:12:10;;;;;;;2.63;2.05;;;6.60;53.30;;;;;;4952060;28;20078;-63
2021/11/10 12:14:37;;;;;;;1.90;1.80;;;6.60;53.50;;;;;;4939303;28;20506;-61
2021/11/10 12:17:12;;;;;;;1.88;1.77;;;6.60;53.40;;;;;;4944680;29;20077;-62
2021/11/10 12:19:41;;;;;;;1.90;1.80;;;6.60;53.00;;;;;;4946854;28;20039;-62
2021/11/10 12:22:18;;;;;;;1.80;1.70;;;6.70;52.80;;;;;;4949873;28;20113;-62
2021/11/10 12:24:54;;;;;;;1.90;1.80;;;6.70;52.40;;;;;;4946112;29;20046;-62
2021/11/10 12:27:31;;;;;;;2.00;1.88;;;6.70;52.00;;;;;;4948664;28;20043;-63
2021/11/10 12:30:17;;;;;;;1.83;1.73;;;6.70;51.60;;;;;;4934680;28;20043;-62
2021/11/10 12:32:44;;;;;;;1.50;1.40;;;6.80;51.40;;;;;;4945129;28;20039;-61
2021/11/10 12:35:30;;;;;;;1.38;1.38;;;6.80;50.90;;;;;;4944733;28;20027;-61
2021/11/10 12:37:59;;;;;;;1.50;1.40;;;6.80;50.30;;;;;;4938385;29;20027;-62
2021/11/10 12:40:29;;;;;;;1.38;1.30;;;6.80;50.00;;;;;;4934481;28;20533;-61
2021/11/10 12:43:01;;;;;;;1.40;1.40;;;6.90;49.30;;;;;;4946100;29;20426;-61
2021/11/10 12:45:31;;;;;;;1.27;1.27;;;6.90;48.90;;;;;;4944521;28;20483;-61
2021/11/10 12:48:06;;;;;;;1.10;1.10;;;6.90;48.30;;;;;;4943522;28;20066;-62
2021/11/10 12:50:39;;;;;;;1.50;1.40;;;6.90;47.80;;;;;;4943009;28;20071;-62
2021/11/10 12:53:14;;;;;;;1.20;1.20;;;6.90;47.50;;;;;;4936304;29;20038;-62
2021/11/10 12:55:56;;;;;;;1.20;1.20;;;7.00;47.60;;;;;;4946160;28;20475;-62
2021/11/10 12:58:23;;;;;;;1.45;1.45;;;7.00;47.90;;;;;;4943416;29;20472;-61
2021/11/10 13:00:54;;;;;;;2.22;1.63;;;7.00;48.30;;;;;;4940771;28;20502;-61